Time;durP1;ratioP1;P1;durP2;ratioP2;P2;SDS_P1;SDS_P2;PMS_P1;PMS_P2;Temp;Humidity;BMP_temperature;BMP_pressure;BME280_temperature;BME280_humidity;BME280_pressure;Samples;Min_cycle;Max_cycle;Signal;HPM_P1;HPM_P2
2022/04/23 00:00:09;;;;;;;9.32;6.20;;;11.60;99.90;;;;;;5060105;28;20040;-64
2022/04/23 00:02:39;;;;;;;10.30;6.32;;;11.50;99.90;;;;;;5067096;28;20041;-64
2022/04/23 00:05:11;;;;;;;10.43;6.30;;;11.50;99.90;;;;;;5057779;28;20093;-64
2022/04/23 00:07:39;;;;;;;9.23;6.55;;;11.40;99.90;;;;;;5066011;28;20120;-64
2022/04/23 00:10:11;;;;;;;10.48;6.45;;;11.30;99.90;;;;;;5056903;28;20043;-62
2022/04/23 00:12:46;;;;;;;12.45;6.95;;;11.30;99.90;;;;;;5054379;28;20048;-63
2022/04/23 00:15:16;;;;;;;10.05;7.63;;;11.30;99.90;;;;;;5068337;28;20036;-63
2022/04/23 00:17:47;;;;;;;8.60;7.00;;;11.20;99.90;;;;;;5066546;28;20417;-63
2022/04/23 00:20:14;;;;;;;8.70;6.72;;;11.20;99.90;;;;;;5056064;28;20130;-64
2022/04/23 00:22:44;;;;;;;13.35;7.50;;;11.20;99.90;;;;;;5052534;28;20094;-63
2022/04/23 00:25:10;;;;;;;11.68;7.97;;;11.20;99.90;;;;;;5066240;28;20037;-64
2022/04/23 00:27:36;;;;;;;12.18;7.82;;;11.10;99.90;;;;;;5061342;28;20075;-63
2022/04/23 00:30:03;;;;;;;11.95;7.55;;;11.10;99.90;;;;;;5066696;28;20043;-63
2022/04/23 00:32:31;;;;;;;12.88;8.10;;;11.10;99.90;;;;;;5072546;28;20477;-64
2022/04/23 00:35:00;;;;;;;11.75;8.07;;;11.10;99.90;;;;;;5053345;28;20401;-63
2022/04/23 00:37:31;;;;;;;13.93;7.78;;;11.00;99.90;;;;;;5044159;28;20040;-64
2022/04/23 00:40:00;;;;;;;13.25;8.48;;;11.00;99.90;;;;;;5066246;28;20056;-63
2022/04/23 00:42:42;;;;;;;10.85;8.30;;;11.00;99.90;;;;;;5053519;28;20040;-64
2022/04/23 00:45:10;;;;;;;13.55;9.15;;;10.90;99.90;;;;;;5063259;28;20045;-64
2022/04/23 00:47:42;;;;;;;12.77;8.35;;;10.80;99.90;;;;;;5062818;28;20039;-64
2022/04/23 00:50:12;;;;;;;12.45;8.70;;;10.70;99.90;;;;;;5061194;28;20048;-64
2022/04/23 00:52:40;;;;;;;13.43;8.67;;;10.60;99.90;;;;;;5070192;28;20045;-63
2022/04/23 00:55:10;;;;;;;10.43;8.32;;;10.50;99.90;;;;;;5057044;28;20045;-65
2022/04/23 00:57:38;;;;;;;14.30;9.07;;;10.50;99.90;;;;;;5061880;28;20066;-65
2022/04/23 01:00:15;;;;;;;13.07;8.35;;;10.50;99.90;;;;;;5067256;28;20041;-63
2022/04/23 01:02:46;;;;;;;15.18;9.55;;;10.50;99.90;;;;;;5052138;28;20521;-63
2022/04/23 01:05:15;;;;;;;12.80;9.23;;;10.50;99.90;;;;;;5065065;28;20042;-64
2022/04/23 01:07:46;;;;;;;13.43;9.80;;;10.40;99.90;;;;;;5064402;28;20044;-64
2022/04/23 01:10:15;;;;;;;13.43;9.57;;;10.50;99.90;;;;;;5057026;28;20119;-64
2022/04/23 01:12:45;;;;;;;14.43;9.63;;;10.50;99.90;;;;;;5069655;28;20052;-64
2022/04/23 01:15:16;;;;;;;13.35;10.25;;;10.50;99.90;;;;;;5069367;28;20037;-64
2022/04/23 01:17:47;;;;;;;16.33;10.60;;;10.50;99.90;;;;;;5054731;28;20037;-64
2022/04/23 01:20:16;;;;;;;13.48;11.02;;;10.50;99.90;;;;;;5062821;28;20115;-64
2022/04/23 01:22:44;;;;;;;14.38;11.18;;;10.60;99.90;;;;;;5056399;28;20074;-65
2022/04/23 01:25:18;;;;;;;13.80;10.07;;;10.60;99.90;;;;;;5052531;28;20049;-62
2022/04/23 01:27:46;;;;;;;13.30;11.02;;;10.60;99.90;;;;;;5067479;28;20047;-64
2022/04/23 01:30:14;;;;;;;14.20;10.52;;;10.60;99.90;;;;;;5060437;28;20405;-63
2022/04/23 01:32:41;;;;;;;18.60;11.55;;;10.60;99.90;;;;;;5063988;28;20128;-64
2022/04/23 01:35:09;;;;;;;14.30;11.65;;;10.60;99.90;;;;;;5071648;28;20036;-63
2022/04/23 01:37:36;;;;;;;14.77;12.07;;;10.70;99.90;;;;;;5055351;28;20033;-64
2022/04/23 01:40:07;;;;;;;14.05;11.50;;;10.70;99.90;;;;;;5055715;28;20115;-64
2022/04/23 01:42:35;;;;;;;12.30;10.98;;;10.60;99.90;;;;;;5069042;28;20073;-63
2022/04/23 01:45:06;;;;;;;14.30;11.60;;;10.60;99.90;;;;;;5051370;28;20442;-64
2022/04/23 01:47:34;;;;;;;14.18;11.55;;;10.60;99.90;;;;;;5058907;28;20040;-64
2022/04/23 01:50:01;;;;;;;15.98;11.98;;;10.60;99.90;;;;;;5067680;28;20040;-64
2022/04/23 01:52:33;;;;;;;15.00;11.57;;;10.60;99.90;;;;;;5061707;28;20040;-64
2022/04/23 01:55:02;;;;;;;16.60;11.55;;;10.60;99.90;;;;;;5055974;28;20115;-64
2022/04/23 01:57:30;;;;;;;16.75;11.40;;;10.50;99.90;;;;;;5051242;28;20041;-63
2022/04/23 02:00:04;;;;;;;14.88;11.00;;;10.60;99.90;;;;;;5066261;28;20516;-64
2022/04/23 02:02:32;;;;;;;15.27;11.00;;;10.50;99.90;;;;;;5064360;28;20070;-64
2022/04/23 02:05:01;;;;;;;15.50;11.13;;;10.50;99.90;;;;;;5055996;28;20397;-64
2022/04/23 02:07:36;;;;;;;16.10;11.20;;;10.60;99.90;;;;;;5053274;28;20044;-62
2022/04/23 02:10:07;;;;;;;14.57;10.70;;;10.50;99.90;;;;;;5064206;28;20118;-64
2022/04/23 02:12:38;;;;;;;14.80;10.93;;;10.50;99.90;;;;;;5059558;28;20520;-65
2022/04/23 02:15:09;;;;;;;13.05;10.45;;;10.50;99.90;;;;;;5065104;28;20052;-65
2022/04/23 02:17:42;;;;;;;15.25;10.95;;;10.40;99.90;;;;;;5067176;28;20037;-63
2022/04/23 02:20:20;;;;;;;14.43;11.07;;;10.40;99.90;;;;;;5050926;28;20049;-64
2022/04/23 02:22:49;;;;;;;13.43;10.20;;;10.30;99.90;;;;;;5056235;28;20043;-64
2022/04/23 02:25:21;;;;;;;14.55;10.55;;;10.30;99.90;;;;;;5065824;28;20113;-64
2022/04/23 02:27:54;;;;;;;14.00;11.10;;;10.30;99.90;;;;;;5050675;28;20453;-64
2022/04/23 02:30:24;;;;;;;18.27;10.07;;;10.20;99.90;;;;;;5046455;28;20521;-64
2022/04/23 02:32:53;;;;;;;13.27;10.27;;;10.20;99.90;;;;;;5064350;28;20052;-64
2022/04/23 02:35:21;;;;;;;14.35;9.73;;;10.20;99.90;;;;;;5053894;28;20048;-64
2022/04/23 02:37:56;;;;;;;13.48;10.50;;;10.20;99.90;;;;;;5070292;28;20116;-64
2022/04/23 02:40:25;;;;;;;12.73;10.30;;;10.20;99.90;;;;;;5061636;28;20044;-63
2022/04/23 02:42:53;;;;;;;17.30;10.63;;;10.20;99.90;;;;;;5054875;28;20044;-64
2022/04/23 02:45:33;;;;;;;14.05;11.00;;;10.20;99.90;;;;;;5069268;28;20037;-65
2022/04/23 02:48:00;;;;;;;12.02;9.85;;;10.20;99.90;;;;;;5050185;28;20555;-64
2022/04/23 02:50:32;;;;;;;14.02;10.40;;;10.20;99.90;;;;;;5057872;28;20059;-64
2022/04/23 02:53:04;;;;;;;14.10;11.10;;;10.20;99.90;;;;;;5064235;28;20032;-65
2022/04/23 02:55:35;;;;;;;16.05;10.80;;;10.20;99.90;;;;;;5053323;28;20037;-64
2022/04/23 02:58:09;;;;;;;17.23;11.35;;;10.10;99.90;;;;;;5071463;28;20504;-63
2022/04/23 03:00:43;;;;;;;15.05;11.93;;;10.00;99.90;;;;;;5060655;28;20071;-65
2022/04/23 03:03:12;;;;;;;14.57;11.30;;;9.90;99.90;;;;;;5056411;28;20075;-64
2022/04/23 03:05:42;;;;;;;13.07;10.70;;;9.80;99.90;;;;;;5066895;28;20370;-64
2022/04/23 03:08:11;;;;;;;16.03;11.63;;;9.70;99.90;;;;;;5051342;28;20033;-64
2022/04/23 03:10:39;;;;;;;15.45;11.88;;;9.70;99.90;;;;;;5059749;28;20072;-63
2022/04/23 03:13:08;;;;;;;15.93;11.93;;;9.70;99.90;;;;;;5062719;28;20485;-64
2022/04/23 03:15:36;;;;;;;14.98;11.65;;;9.60;99.90;;;;;;5057251;28;20040;-65
2022/04/23 03:18:09;;;;;;;11.70;9.32;;;9.70;99.90;;;;;;5067166;28;20455;-62
2022/04/23 03:20:38;;;;;;;14.10;11.35;;;9.60;99.90;;;;;;5066484;28;20049;-63
2022/04/23 03:23:06;;;;;;;15.48;11.85;;;9.60;99.90;;;;;;5049210;28;20045;-64
2022/04/23 03:25:40;;;;;;;17.02;12.35;;;9.60;99.90;;;;;;5061867;28;20059;-63
2022/04/23 03:28:08;;;;;;;15.45;12.07;;;9.60;99.90;;;;;;5058277;28;20113;-64
2022/04/23 03:30:37;;;;;;;15.75;11.75;;;9.60;99.90;;;;;;5073865;28;20080;-65
2022/04/23 03:33:05;;;;;;;14.10;11.73;;;9.60;99.90;;;;;;5044111;28;20122;-63
2022/04/23 03:35:33;;;;;;;16.55;12.05;;;9.60;99.90;;;;;;5063725;28;20493;-64
2022/04/23 03:38:05;;;;;;;15.68;12.15;;;9.60;99.90;;;;;;5061566;28;20060;-63
2022/04/23 03:40:31;;;;;;;10.80;7.85;;;9.60;99.90;;;;;;5073983;28;20086;-64
2022/04/23 03:42:59;;;;;;;15.73;11.85;;;9.50;99.90;;;;;;5061167;28;20072;-65
2022/04/23 03:45:29;;;;;;;13.27;11.88;;;9.50;99.90;;;;;;5061123;28;20040;-63
2022/04/23 03:47:58;;;;;;;14.80;12.25;;;9.60;99.90;;;;;;5039544;28;20477;-65
2022/04/23 03:50:26;;;;;;;15.23;12.13;;;9.50;99.90;;;;;;5074911;28;20079;-64
2022/04/23 03:52:57;;;;;;;16.02;12.55;;;9.50;99.90;;;;;;5067121;28;20037;-64
2022/04/23 03:55:26;;;;;;;18.45;12.70;;;9.50;99.90;;;;;;5058632;28;20093;-63
2022/04/23 03:57:54;;;;;;;14.65;12.57;;;9.50;99.90;;;;;;5058484;28;20183;-64
2022/04/23 04:00:26;;;;;;;14.27;11.63;;;9.50;99.90;;;;;;5070682;28;20075;-63
2022/04/23 04:02:56;;;;;;;14.95;12.25;;;9.50;99.90;;;;;;5071396;28;20104;-64
2022/04/23 04:05:26;;;;;;;16.40;12.57;;;9.50;99.90;;;;;;5054716;28;20033;-64
2022/04/23 04:07:54;;;;;;;16.15;11.93;;;9.40;99.90;;;;;;5061307;28;20041;-63
2022/04/23 04:10:25;;;;;;;16.15;12.20;;;9.50;99.90;;;;;;5067367;28;20444;-64
2022/04/23 04:13:02;;;;;;;17.40;12.25;;;9.40;99.90;;;;;;5073223;28;20032;-64
2022/04/23 04:15:31;;;;;;;15.88;12.00;;;9.40;99.90;;;;;;5052931;28;20183;-64
2022/04/23 04:18:01;;;;;;;18.25;12.35;;;9.40;99.90;;;;;;5060047;28;20068;-63
2022/04/23 04:20:32;;;;;;;14.97;11.47;;;9.40;99.90;;;;;;5061074;28;20032;-65
2022/04/23 04:23:00;;;;;;;;;;;9.40;99.90;;;;;;5072780;28;20627;-64
2022/04/23 04:25:29;;;;;;;16.15;11.75;;;9.40;99.90;;;;;;5040274;28;20442;-63
2022/04/23 04:28:02;;;;;;;17.08;12.68;;;9.30;99.90;;;;;;5061574;28;20093;-65
2022/04/23 04:31:46;;;;;;;16.90;12.75;;;9.30;99.90;;;;;;5064823;28;20045;-63
2022/04/23 04:33:19;;;;;;;18.33;12.80;;;9.30;99.90;;;;;;5052790;28;20048;-64
2022/04/23 04:35:47;;;;;;;18.83;13.57;;;9.20;99.90;;;;;;5069036;28;20044;-63
2022/04/23 04:38:15;;;;;;;16.58;12.80;;;9.20;99.90;;;;;;5065358;28;20110;-64
2022/04/23 04:40:44;;;;;;;16.08;12.15;;;9.10;99.90;;;;;;5054084;28;20515;-64
2022/04/23 04:43:13;;;;;;;16.92;12.30;;;9.10;99.90;;;;;;5072313;28;20621;-63
2022/04/23 04:45:41;;;;;;;15.77;11.77;;;9.10;99.90;;;;;;5065530;28;20103;-65
2022/04/23 04:48:10;;;;;;;20.27;13.82;;;9.10;99.90;;;;;;5051487;28;20114;-64
2022/04/23 04:50:41;;;;;;;14.77;12.05;;;9.10;99.90;;;;;;5058978;28;20079;-64
2022/04/23 04:53:10;;;;;;;15.20;11.02;;;9.10;99.90;;;;;;5066415;28;20032;-63
2022/04/23 04:55:42;;;;;;;14.10;11.45;;;9.10;99.90;;;;;;5072333;28;20048;-64
2022/04/23 04:58:11;;;;;;;16.23;11.98;;;9.20;99.90;;;;;;5052271;28;20055;-65
2022/04/23 05:00:43;;;;;;;12.80;11.43;;;9.20;99.90;;;;;;5062021;28;20064;-64
2022/04/23 05:03:14;;;;;;;14.07;11.52;;;9.20;99.90;;;;;;5061449;28;20043;-65
2022/04/23 05:05:47;;;;;;;13.20;10.95;;;9.30;99.90;;;;;;5072303;28;20082;-64
2022/04/23 05:08:16;;;;;;;13.57;11.40;;;9.30;99.90;;;;;;5058152;28;20037;-65
2022/04/23 05:10:42;;;;;;;13.70;11.40;;;9.30;99.90;;;;;;5061211;28;20039;-64
2022/04/23 05:13:10;;;;;;;13.77;11.43;;;9.30;99.90;;;;;;5060516;28;20044;-63
2022/04/23 05:15:39;;;;;;;14.75;11.38;;;9.40;99.90;;;;;;5071955;28;20082;-63
2022/04/23 05:18:06;;;;;;;15.27;9.27;;;9.40;99.90;;;;;;5040853;28;20128;-63
2022/04/23 05:20:33;;;;;;;13.90;10.48;;;9.40;99.90;;;;;;5037952;28;20396;-65
2022/04/23 05:23:02;;;;;;;13.88;11.73;;;9.50;99.90;;;;;;5066953;28;20071;-64
2022/04/23 05:25:30;;;;;;;11.18;9.95;;;9.60;99.90;;;;;;5052429;28;20299;-65
2022/04/23 05:27:59;;;;;;;12.52;11.23;;;9.60;99.90;;;;;;5061557;28;20098;-63
2022/04/23 05:30:28;;;;;;;12.05;10.70;;;9.60;99.90;;;;;;5064788;28;20476;-63
2022/04/23 05:32:56;;;;;;;12.35;9.68;;;9.70;99.90;;;;;;5055035;28;20072;-64
2022/04/23 05:35:25;;;;;;;13.15;10.68;;;9.70;99.90;;;;;;5071920;28;20052;-64
2022/04/23 05:37:53;;;;;;;11.68;10.35;;;9.80;99.90;;;;;;5066706;28;20039;-65
2022/04/23 05:40:22;;;;;;;12.75;9.65;;;9.80;99.90;;;;;;5052886;28;20043;-64
2022/04/23 05:42:50;;;;;;;12.10;9.60;;;9.90;99.90;;;;;;5061182;28;20352;-63
2022/04/23 05:45:23;;;;;;;11.00;9.52;;;9.90;99.90;;;;;;5065287;28;20397;-66
2022/04/23 05:47:54;;;;;;;12.80;9.43;;;10.00;99.90;;;;;;5071190;28;20039;-66
2022/04/23 05:50:22;;;;;;;13.90;9.85;;;10.10;99.90;;;;;;5051905;28;20037;-63
2022/04/23 05:52:52;;;;;;;11.30;9.80;;;10.10;99.90;;;;;;5058149;28;20043;-65
2022/04/23 05:55:23;;;;;;;11.30;9.27;;;10.20;99.90;;;;;;5055924;28;20111;-64
2022/04/23 05:57:52;;;;;;;11.98;9.23;;;10.20;99.90;;;;;;5072011;28;20453;-64
2022/04/23 06:00:21;;;;;;;12.60;9.95;;;10.30;99.90;;;;;;5043591;28;20505;-63
2022/04/23 06:02:49;;;;;;;10.38;9.27;;;10.40;99.90;;;;;;5057047;28;20115;-64
2022/04/23 06:05:18;;;;;;;12.70;8.48;;;10.50;99.90;;;;;;5069615;28;20039;-65
2022/04/23 06:07:47;;;;;;;11.90;9.60;;;10.60;99.90;;;;;;5050976;28;20041;-65
2022/04/23 06:10:19;;;;;;;11.15;7.43;;;10.70;99.90;;;;;;5058278;28;20067;-64
2022/04/23 06:12:48;;;;;;;12.75;9.90;;;10.80;99.90;;;;;;5063455;28;20041;-65
2022/04/23 06:15:17;;;;;;;10.77;9.35;;;11.00;99.90;;;;;;5054044;28;20067;-65
2022/04/23 06:17:45;;;;;;;10.43;7.97;;;11.20;99.90;;;;;;5071165;28;20040;-64
2022/04/23 06:20:18;;;;;;;11.65;9.82;;;11.40;99.90;;;;;;5063503;28;20037;-64
2022/04/23 06:22:51;;;;;;;9.63;8.48;;;11.60;99.90;;;;;;5051808;28;20573;-64
2022/04/23 06:25:22;;;;;;;10.88;8.88;;;11.60;99.90;;;;;;5056319;28;20056;-65
2022/04/23 06:27:53;;;;;;;11.68;9.90;;;11.70;99.90;;;;;;5051611;28;20097;-66
2022/04/23 06:30:22;;;;;;;12.70;9.98;;;11.80;99.90;;;;;;5067429;28;20037;-64
2022/04/23 06:32:49;;;;;;;7.35;5.03;;;12.00;99.90;;;;;;5049657;28;20055;-65
2022/04/23 06:35:16;;;;;;;11.18;9.20;;;12.20;99.90;;;;;;5046129;28;20040;-65
2022/04/23 06:37:44;;;;;;;11.98;8.27;;;12.30;99.90;;;;;;5057270;28;20139;-65
2022/04/23 06:40:13;;;;;;;11.98;10.10;;;12.40;99.90;;;;;;5071762;28;20524;-65
2022/04/23 06:42:42;;;;;;;11.60;9.65;;;12.50;99.90;;;;;;5059020;28;20047;-66
2022/04/23 06:45:11;;;;;;;11.40;8.73;;;12.60;99.90;;;;;;5056228;28;20503;-64
2022/04/23 06:47:40;;;;;;;10.27;9.15;;;12.60;99.90;;;;;;5037940;28;20116;-64
2022/04/23 06:50:09;;;;;;;11.82;9.27;;;12.70;99.90;;;;;;5070539;28;20045;-64
2022/04/23 06:52:36;;;;;;;10.07;8.95;;;12.80;99.90;;;;;;5064191;28;20090;-65
2022/04/23 06:55:05;;;;;;;15.43;10.48;;;12.90;99.90;;;;;;5055840;28;20041;-64
2022/04/23 06:57:33;;;;;;;13.05;9.63;;;13.00;99.90;;;;;;5064962;28;20049;-64
2022/04/23 07:00:04;;;;;;;12.35;10.05;;;13.10;99.90;;;;;;5066885;28;20048;-63
2022/04/23 07:02:32;;;;;;;11.40;9.40;;;13.30;99.90;;;;;;5066180;28;20068;-65
2022/04/23 07:04:59;;;;;;;11.57;9.68;;;13.40;99.90;;;;;;5059005;28;20068;-64
2022/04/23 07:07:27;;;;;;;15.30;10.70;;;13.50;99.90;;;;;;5053617;28;20086;-64
2022/04/23 07:09:58;;;;;;;11.57;10.00;;;13.50;99.90;;;;;;5055561;28;20124;-65
2022/04/23 07:12:28;;;;;;;;;;;13.50;99.90;;;;;;5059700;28;20035;-64
2022/04/23 07:15:00;;;;;;;10.55;9.40;;;13.60;99.90;;;;;;5067613;28;19955;-65
2022/04/23 07:17:27;;;;;;;12.77;10.50;;;13.50;99.90;;;;;;5073037;28;20047;-64
2022/04/23 07:19:59;;;;;;;11.52;9.50;;;13.50;99.90;;;;;;5073713;28;20036;-65
2022/04/23 07:22:27;;;;;;;11.82;8.88;;;13.50;99.90;;;;;;5069134;28;20028;-66
2022/04/23 07:24:55;;;;;;;11.52;9.50;;;13.60;99.90;;;;;;5054747;28;20111;-65
2022/04/23 07:27:23;;;;;;;11.43;9.18;;;13.70;99.90;;;;;;5065008;28;20447;-64
2022/04/23 07:29:52;;;;;;;12.23;10.25;;;13.80;99.90;;;;;;5065422;28;20036;-64
2022/04/23 07:32:21;;;;;;;11.48;9.32;;;13.80;99.90;;;;;;5054052;28;20041;-65
2022/04/23 07:37:35;;;;;;;12.85;9.88;;;13.80;99.90;;;;;;5065912;28;20048;-65
2022/04/23 07:40:10;;;;;;;11.65;10.00;;;14.00;99.90;;;;;;5058989;28;20037;-63
2022/04/23 07:42:38;;;;;;;11.15;9.93;;;14.00;99.90;;;;;;5074214;28;20036;-65
2022/04/23 07:45:06;;;;;;;9.23;7.50;;;14.10;99.90;;;;;;5068907;28;20064;-64
2022/04/23 07:47:39;;;;;;;12.15;10.60;;;14.20;99.90;;;;;;5038486;28;20052;-65
2022/04/23 07:50:10;;;;;;;11.93;9.40;;;14.30;99.90;;;;;;5065264;28;20080;-65
2022/04/23 07:52:38;;;;;;;11.98;8.85;;;14.40;99.90;;;;;;5056601;28;20076;-66
2022/04/23 07:55:07;;;;;;;;;;;14.50;99.90;;;;;;5053747;28;20037;-64
2022/04/23 07:57:35;;;;;;;11.13;10.02;;;14.70;99.90;;;;;;5055131;28;20798;-64
2022/04/23 08:00:06;;;;;;;12.68;10.68;;;14.90;99.90;;;;;;5053996;28;20037;-65
2022/04/23 08:02:34;;;;;;;11.73;10.50;;;15.10;99.90;;;;;;5060313;28;20677;-66
2022/04/23 08:05:09;;;;;;;12.20;9.55;;;15.30;99.90;;;;;;5073985;28;20064;-65
2022/04/23 08:07:39;;;;;;;8.95;6.97;;;15.40;98.70;;;;;;5070087;28;20041;-64
2022/04/23 08:10:08;;;;;;;11.82;10.50;;;15.60;98.30;;;;;;5064555;28;20051;-65
2022/04/23 08:12:40;;;;;;;11.02;8.68;;;15.80;96.10;;;;;;5066875;28;20045;-66
2022/04/23 08:15:12;;;;;;;12.38;10.68;;;15.80;96.50;;;;;;5066260;28;20424;-64
2022/04/23 08:17:43;;;;;;;11.32;8.32;;;16.00;96.70;;;;;;5065248;28;20091;-66
2022/04/23 08:20:13;;;;;;;11.45;9.95;;;16.20;94.50;;;;;;5064779;28;20523;-65
2022/04/23 08:22:41;;;;;;;14.52;10.13;;;16.30;94.30;;;;;;5066648;28;20429;-66
2022/04/23 08:25:09;;;;;;;9.95;8.90;;;16.40;92.50;;;;;;5056607;28;20029;-65
2022/04/23 08:30:49;;;;;;;9.65;8.43;;;16.60;91.90;;;;;;5057447;28;20049;-65
2022/04/23 08:33:15;;;;;;;14.10;10.65;;;16.70;90.60;;;;;;5058682;28;20467;-64
2022/04/23 08:35:42;;;;;;;11.50;9.40;;;16.90;91.40;;;;;;5058531;28;20044;-65
2022/04/23 08:38:09;;;;;;;10.93;7.38;;;17.20;91.70;;;;;;5062798;28;20041;-65
2022/04/23 08:40:44;;;;;;;9.65;8.43;;;17.50;88.90;;;;;;5065876;28;20029;-65
2022/04/23 08:43:13;;;;;;;11.13;9.55;;;17.50;86.80;;;;;;5058932;28;20122;-65
2022/04/23 08:45:43;;;;;;;10.77;8.93;;;17.60;86.40;;;;;;5049343;28;20072;-64
2022/04/23 08:48:17;;;;;;;10.65;8.70;;;17.60;82.20;;;;;;5057318;28;20118;-64
2022/04/23 08:50:49;;;;;;;7.82;6.07;;;17.70;83.50;;;;;;5057077;28;20037;-65
2022/04/23 08:53:27;;;;;;;9.25;8.07;;;17.80;79.60;;;;;;5058036;28;20053;-64
2022/04/23 08:55:56;;;;;;;8.55;7.65;;;17.80;78.70;;;;;;5057798;28;20044;-65
2022/04/23 08:58:25;;;;;;;8.88;7.90;;;17.80;77.70;;;;;;5069691;28;20480;-65
2022/04/23 09:00:54;;;;;;;10.55;8.43;;;17.80;75.70;;;;;;5056426;28;20374;-65
2022/04/23 09:03:21;;;;;;;9.88;8.80;;;17.70;74.60;;;;;;5062233;28;20339;-65
2022/04/23 09:05:55;;;;;;;10.63;8.13;;;17.80;76.40;;;;;;5065926;28;20037;-65
2022/04/23 09:08:29;;;;;;;10.07;8.68;;;18.00;75.70;;;;;;5057430;28;20052;-66
2022/04/23 09:10:58;;;;;;;8.35;7.03;;;18.20;73.40;;;;;;5053103;28;20070;-66
2022/04/23 09:13:31;;;;;;;11.38;8.80;;;18.20;71.70;;;;;;5042993;28;20044;-65
2022/04/23 09:24:51;;;;;;;11.82;8.43;;;18.40;71.00;;;;;;5061380;28;20053;-65
2022/04/23 09:27:30;;;;;;;9.38;8.25;;;18.60;71.10;;;;;;5065187;28;20482;-65
2022/04/23 09:30:08;;;;;;;9.73;8.07;;;18.80;68.80;;;;;;5073402;28;20056;-64
2022/04/23 09:32:38;;;;;;;10.20;9.15;;;18.70;65.80;;;;;;5053589;28;20068;-65
2022/04/23 09:35:12;;;;;;;10.18;8.07;;;18.70;68.20;;;;;;5060292;28;20433;-64
2022/04/23 09:40:31;;;;;;;10.00;6.63;;;19.30;68.80;;;;;;5071299;28;20052;-66
2022/04/23 09:43:06;;;;;;;10.10;9.13;;;19.40;65.70;;;;;;5071407;28;20040;-65
2022/04/23 09:45:39;;;;;;;11.75;9.57;;;19.50;65.00;;;;;;5060842;28;20082;-64
2022/04/23 09:48:20;;;;;;;10.27;9.18;;;19.60;65.50;;;;;;5055494;28;20051;-65
2022/04/23 09:50:49;;;;;;;9.85;8.32;;;19.60;64.50;;;;;;5048956;28;20048;-64
2022/04/23 09:53:20;;;;;;;11.90;9.03;;;19.80;67.10;;;;;;5062365;28;20556;-63
2022/04/23 09:55:51;;;;;;;8.95;8.10;;;20.00;66.50;;;;;;5063301;28;20171;-64
2022/04/23 09:58:21;;;;;;;8.10;7.30;;;20.10;62.00;;;;;;5056703;28;20043;-66
2022/04/23 10:00:50;;;;;;;9.35;7.38;;;19.90;60.00;;;;;;5072462;28;20036;-64
2022/04/23 10:03:40;;;;;;;10.60;9.05;;;19.70;60.10;;;;;;5047071;28;20032;-64
2022/04/23 10:06:09;;;;;;;11.50;8.85;;;19.70;63.30;;;;;;5046900;28;20057;-64
2022/04/23 10:08:44;;;;;;;11.60;8.23;;;19.90;64.50;;;;;;5054463;28;20077;-65
2022/04/23 10:11:27;;;;;;;10.77;8.25;;;20.30;64.10;;;;;;5052222;28;20404;-65
2022/04/23 10:14:13;;;;;;;12.20;9.15;;;20.40;59.60;;;;;;5061221;28;20093;-66
2022/04/23 10:16:45;;;;;;;9.07;8.13;;;20.30;62.10;;;;;;5063991;28;20063;-65
2022/04/23 10:19:13;;;;;;;8.82;8.00;;;20.30;60.50;;;;;;5059123;28;20501;-65
2022/04/23 10:21:57;;;;;;;9.65;8.65;;;20.30;59.20;;;;;;5064708;28;20036;-64
2022/04/23 10:24:52;;;;;;;11.55;9.10;;;20.40;59.50;;;;;;5067309;28;20036;-64
2022/04/23 10:27:25;;;;;;;10.55;8.80;;;20.40;58.00;;;;;;5054472;28;20064;-65
2022/04/23 10:30:04;;;;;;;11.15;9.05;;;20.50;59.80;;;;;;5067015;28;20579;-65
2022/04/23 10:32:41;;;;;;;12.98;7.53;;;20.60;60.70;;;;;;5052367;28;20041;-64
2022/04/23 10:35:25;;;;;;;8.52;7.53;;;20.50;56.80;;;;;;5057199;28;20420;-64
2022/04/23 10:37:59;;;;;;;8.07;6.95;;;20.50;57.80;;;;;;5047813;28;20073;-66
2022/04/23 10:40:26;;;;;;;11.23;8.85;;;20.60;56.90;;;;;;5062748;28;20044;-65
2022/04/23 10:43:16;;;;;;;12.25;10.15;;;20.60;58.20;;;;;;5041036;28;20056;-64
2022/04/23 10:45:48;;;;;;;9.68;8.55;;;20.60;56.80;;;;;;5053691;28;20041;-64
2022/04/23 10:48:25;;;;;;;8.77;6.35;;;20.50;57.30;;;;;;5068015;28;20726;-65
2022/04/23 10:51:20;;;;;;;10.90;9.63;;;20.50;56.80;;;;;;5050660;28;20365;-65
2022/04/23 10:53:47;;;;;;;12.45;8.90;;;20.40;56.10;;;;;;5068711;28;20068;-64
2022/04/23 10:56:21;;;;;;;10.60;9.48;;;20.50;58.30;;;;;;5070272;28;20064;-64
2022/04/23 10:58:52;;;;;;;10.85;9.70;;;20.70;57.80;;;;;;5055111;28;20064;-65
2022/04/23 11:01:36;;;;;;;14.15;10.75;;;20.80;56.60;;;;;;5058510;28;20037;-65
2022/04/23 11:04:22;;;;;;;8.63;7.72;;;20.90;56.60;;;;;;5068772;28;20481;-65
2022/04/23 11:13:27;;;;;;;9.10;8.05;;;20.80;56.30;;;;;;5056728;28;20489;-64
2022/04/23 11:16:13;;;;;;;10.35;9.15;;;20.80;54.50;;;;;;5070107;28;20119;-67
2022/04/23 11:18:42;;;;;;;10.38;7.72;;;20.80;56.50;;;;;;5056779;28;20108;-64
2022/04/23 11:21:14;;;;;;;10.07;8.90;;;20.80;54.30;;;;;;5057933;28;20047;-66
2022/04/23 11:23:50;;;;;;;11.50;9.20;;;20.90;54.90;;;;;;5056648;28;20055;-65
2022/04/23 11:26:22;;;;;;;11.57;9.27;;;20.90;56.00;;;;;;5071015;28;20259;-65
2022/04/23 11:29:01;;;;;;;11.65;8.68;;;20.90;55.20;;;;;;5057576;28;20436;-64
2022/04/23 11:31:27;;;;;;;10.30;9.30;;;21.10;55.30;;;;;;5058355;28;20044;-64
2022/04/23 11:34:00;;;;;;;9.23;8.32;;;21.10;55.50;;;;;;5063616;28;20052;-65
2022/04/23 11:36:30;;;;;;;10.48;8.70;;;21.20;56.60;;;;;;5051285;28;20048;-65
2022/04/23 11:38:56;;;;;;;;;;;21.30;52.60;;;;;;5060637;28;20115;-65
2022/04/23 11:41:35;;;;;;;9.13;8.23;;;21.10;52.90;;;;;;5059429;28;19917;-64
2022/04/23 11:44:16;;;;;;;9.57;8.45;;;21.10;54.20;;;;;;5060026;28;20076;-65
2022/04/23 11:46:47;;;;;;;9.32;7.63;;;21.10;53.50;;;;;;5071397;28;20052;-63
2022/04/23 11:49:26;;;;;;;8.90;6.60;;;21.10;52.50;;;;;;5052963;28;20413;-64
2022/04/23 11:52:04;;;;;;;11.38;9.45;;;21.00;52.60;;;;;;5061246;28;20047;-64
2022/04/23 11:54:36;;;;;;;11.45;8.85;;;21.10;54.30;;;;;;5039769;28;20068;-64
2022/04/23 11:57:07;;;;;;;9.63;8.40;;;21.00;54.50;;;;;;5074096;28;20041;-66
2022/04/23 11:59:44;;;;;;;8.32;7.53;;;21.10;55.20;;;;;;5063176;28;20041;-64
2022/04/23 12:02:30;;;;;;;10.07;8.80;;;21.30;53.20;;;;;;5059169;28;20036;-65
2022/04/23 12:04:59;;;;;;;10.95;8.70;;;21.30;53.90;;;;;;5072656;28;20040;-65
2022/04/23 12:07:25;;;;;;;9.50;8.43;;;21.20;55.10;;;;;;5070725;28;20500;-65
2022/04/23 12:09:53;;;;;;;8.13;7.32;;;21.10;54.50;;;;;;5056004;28;20037;-65
2022/04/23 12:12:25;;;;;;;8.98;8.05;;;21.00;52.20;;;;;;5062100;28;20116;-64
2022/04/23 12:14:59;;;;;;;10.10;7.47;;;20.90;52.30;;;;;;5072851;28;20515;-67
2022/04/23 12:17:30;;;;;;;10.95;7.72;;;20.90;53.90;;;;;;5053629;28;20045;-65
2022/04/23 12:20:08;;;;;;;8.35;6.95;;;20.90;53.80;;;;;;5062506;28;20481;-65
2022/04/23 12:22:34;;;;;;;8.52;7.50;;;20.90;53.30;;;;;;5060286;28;20492;-66
2022/04/23 12:25:18;;;;;;;7.95;7.15;;;20.80;53.20;;;;;;5070582;28;20044;-67
2022/04/23 12:27:59;;;;;;;12.32;7.85;;;20.90;51.80;;;;;;5052781;28;20106;-65
2022/04/23 12:42:10;;;;;;;10.75;7.57;;;20.50;50.70;;;;;;5057950;28;20041;-66
2022/04/23 12:44:46;;;;;;;8.23;6.15;;;20.50;55.30;;;;;;5068435;28;20029;-65
2022/04/23 12:47:17;;;;;;;7.57;6.45;;;20.60;53.60;;;;;;5054847;28;20041;-65
2022/04/23 12:49:55;;;;;;;9.95;5.57;;;20.60;51.70;;;;;;5056902;28;20100;-65
2022/04/23 12:52:29;;;;;;;6.22;5.53;;;20.60;50.50;;;;;;5045851;28;20053;-65
2022/04/23 12:55:18;;;;;;;6.60;5.95;;;20.50;50.50;;;;;;5056070;28;20087;-66
2022/04/23 12:58:02;;;;;;;7.22;5.60;;;20.40;50.80;;;;;;5072201;28;20493;-66
2022/04/23 13:00:38;;;;;;;5.95;5.38;;;20.40;50.90;;;;;;5057761;28;20045;-65
2022/04/23 13:05:58;;;;;;;5.60;4.90;;;20.10;49.30;;;;;;5062131;28;20037;-66
2022/04/23 13:11:24;;;;;;;7.82;5.10;;;19.90;49.00;;;;;;5067321;28;20032;-65
2022/04/23 13:13:54;;;;;;;8.02;6.38;;;19.90;48.90;;;;;;5066380;28;20128;-65
2022/04/23 13:16:21;;;;;;;7.10;6.43;;;19.90;49.50;;;;;;5054739;28;20049;-64
2022/04/23 13:18:47;;;;;;;7.78;6.38;;;19.80;50.60;;;;;;5054109;28;20037;-66
2022/04/23 13:21:14;;;;;;;7.03;6.32;;;19.90;51.10;;;;;;5063880;28;20500;-66
2022/04/23 13:23:40;;;;;;;7.30;6.60;;;20.00;51.30;;;;;;5061845;28;20041;-66
2022/04/23 13:26:06;;;;;;;7.88;6.05;;;20.00;50.50;;;;;;5063952;28;20101;-65
2022/04/23 13:28:32;;;;;;;6.43;5.22;;;19.90;47.90;;;;;;5071595;28;20045;-65
2022/04/23 13:30:57;;;;;;;7.90;4.93;;;19.70;48.00;;;;;;5057780;28;20048;-65
2022/04/23 13:33:23;;;;;;;7.15;5.28;;;19.50;47.80;;;;;;5058487;28;20567;-65
2022/04/23 13:35:49;;;;;;;8.20;5.75;;;19.40;48.70;;;;;;5066833;28;20066;-66
2022/04/23 13:38:16;;;;;;;6.22;5.15;;;19.60;49.90;;;;;;5054396;28;20080;-66